^^
Saratoga-Weather Station Historical Data
Daily Summary for January 16, 2021 Units:  Metric    English   Both
Daily Weekly Monthly Yearly Custom
  High: Low: Average:
Temperature: 17.6 °C 16.6 °C 17.2 °C
Dew Point: 16.5 °C 15.6 °C 16.1 °C
Humidity: 95% 93% 94%
Wind Speed: 11.1km/h 0km/h 4.3km/h
Wind Gust: 14.5km/h - -
Wind- - West
Pressure: 1017.3 hPa 1015.9 hPa -
Precipitation: 0.0 mm    
Historical Graphs
 
 
Tabular Data for January 16, 2021
Time Temperature Dew Point Pressure Wind Wind Speed Wind Gust Humidity Rainfall Rate (Hourly) solar
00:01 17.2 °C 16.1 °C 1016.3 hPa West 6.4 km/h 11.3 km/h 93% 0.0 mm 0 W/m2
00:06 17.2 °C 16.1 °C 1015.9 hPa WSW 4.7 km/h 11.3 km/h 93% 0.0 mm 0 W/m2
00:11 17.2 °C 16.1 °C 1016.3 hPa WSW 3.2 km/h 8 km/h 93% 0.0 mm 0 W/m2
00:16 17.2 °C 16.1 °C 1016.3 hPa WSW 3.2 km/h 11.3 km/h 93% 0.0 mm 0 W/m2
00:21 17.2 °C 16.1 °C 1016.3 hPa WNW 3.2 km/h 4.8 km/h 93% 0.0 mm 0 W/m2
00:26 17.1 °C 16 °C 1016.3 hPa West 1.4 km/h 6.4 km/h 93% 0.0 mm 0 W/m2
00:31 17.1 °C 16 °C 1016.3 hPa West 1.4 km/h 4.8 km/h 93% 0.0 mm 0 W/m2
00:36 17 °C 16 °C 1016.3 hPa Calm   3.2 km/h 94% 0.0 mm 0 W/m2
00:41 16.9 °C 15.8 °C 1016.3 hPa West 3.2 km/h 3.2 km/h 93% 0.0 mm 0 W/m2
00:46 16.9 °C 15.9 °C 1016.3 hPa Calm     94% 0.0 mm 0 W/m2
00:51 16.8 °C 15.8 °C 1016.3 hPa Calm     94% 0.0 mm 0 W/m2
00:56 16.7 °C 15.7 °C 1016.6 hPa Calm     94% 0.0 mm 0 W/m2
01:01 16.6 °C 15.6 °C 1016.6 hPa Calm     94% 0.0 mm 0 W/m2
01:06 16.6 °C 15.6 °C 1016.9 hPa Calm     94% 0.0 mm 0 W/m2
01:11 16.6 °C 15.8 °C 1016.9 hPa Calm     95% 0.0 mm 0 W/m2
01:16 16.6 °C 15.8 °C 1016.6 hPa WSW 1.4 km/h 3.2 km/h 95% 0.0 mm 0 W/m2
01:21 16.6 °C 15.8 °C 1016.6 hPa Calm     95% 0.0 mm 0 W/m2
01:26 16.7 °C 15.9 °C 1016.9 hPa Calm   3.2 km/h 95% 0.0 mm 0 W/m2
01:31 16.7 °C 15.9 °C 1016.9 hPa Calm     95% 0.0 mm 0 W/m2
01:36 16.7 °C 15.9 °C 1016.9 hPa Calm   1.6 km/h 95% 0.0 mm 0 W/m2
01:41 16.7 °C 15.9 °C 1016.6 hPa Calm   3.2 km/h 95% 0.0 mm 0 W/m2
01:46 16.7 °C 15.9 °C 1016.6 hPa Calm   3.2 km/h 95% 0.0 mm 0 W/m2
01:51 16.8 °C 16 °C 1016.6 hPa WSW 1.4 km/h 4.8 km/h 95% 0.0 mm 0 W/m2
01:56 16.8 °C 16 °C 1016.6 hPa West 4.7 km/h 9.7 km/h 95% 0.0 mm 0 W/m2
02:01 16.9 °C 16.1 °C 1016.6 hPa West 4.7 km/h 6.4 km/h 95% 0.0 mm 0 W/m2
02:06 17 °C 16.2 °C 1016.9 hPa West 4.7 km/h 4.8 km/h 95% 0.0 mm 0 W/m2
02:11 17.1 °C 16.3 °C 1016.9 hPa West 4.7 km/h 9.7 km/h 95% 0.0 mm 0 W/m2
02:16 17.2 °C 16.4 °C 1016.9 hPa West 6.4 km/h 9.7 km/h 95% 0.0 mm 0 W/m2
02:21 17.2 °C 16.2 °C 1016.9 hPa West 4.7 km/h 6.4 km/h 94% 0.0 mm 0 W/m2
02:26 17.3 °C 16.3 °C 1016.6 hPa WSW 6.4 km/h 11.3 km/h 94% 0.0 mm 0 W/m2
02:31 17.4 °C 16.4 °C 1016.6 hPa West 4.7 km/h 9.7 km/h 94% 0.0 mm 0 W/m2
02:36 17.4 °C 16.4 °C 1016.6 hPa WNW 4.7 km/h 11.3 km/h 94% 0.0 mm 0 W/m2
02:41 17.4 °C 16.4 °C 1016.6 hPa West 6.4 km/h 11.3 km/h 94% 0.0 mm 0 W/m2
02:46 17.4 °C 16.4 °C 1016.6 hPa West 3.2 km/h 6.4 km/h 94% 0.0 mm 0 W/m2
02:51 17.5 °C 16.4 °C 1016.6 hPa WNW 3.2 km/h 6.4 km/h 93% 0.0 mm 0 W/m2
02:56 17.5 °C 16.4 °C 1016.6 hPa West 4.7 km/h 9.7 km/h 93% 0.0 mm 0 W/m2
03:01 17.6 °C 16.5 °C 1016.6 hPa WNW 7.9 km/h 9.7 km/h 93% 0.0 mm 0 W/m2
03:06 17.6 °C 16.5 °C 1016.6 hPa WSW 11.1 km/h 11.3 km/h 93% 0.0 mm 0 W/m2
03:11 17.6 °C 16.5 °C 1016.6 hPa WNW 7.9 km/h 12.9 km/h 93% 0.0 mm 0 W/m2
03:17 17.6 °C 16.5 °C 1016.6 hPa West 4.7 km/h 9.7 km/h 93% 0.0 mm 0 W/m2
03:22 17.6 °C 16.5 °C 1016.6 hPa West 6.4 km/h 12.9 km/h 93% 0.0 mm 0 W/m2
03:27 17.6 °C 16.5 °C 1016.6 hPa West 4.7 km/h 6.4 km/h 93% 0.0 mm 0 W/m2
03:32 17.5 °C 16.4 °C 1016.6 hPa West 9.7 km/h 12.9 km/h 93% 0.0 mm 0 W/m2
03:37 17.4 °C 16.3 °C 1016.6 hPa West 4.7 km/h 12.9 km/h 93% 0.0 mm 0 W/m2
03:42 17.4 °C 16.3 °C 1016.6 hPa West 6.4 km/h 11.3 km/h 93% 0.0 mm 0 W/m2
03:47 17.4 °C 16.3 °C 1016.6 hPa West 6.4 km/h 6.4 km/h 93% 0.0 mm 0 W/m2
03:52 17.4 °C 16.3 °C 1016.6 hPa West 4.7 km/h 6.4 km/h 93% 0.0 mm 0 W/m2
03:57 17.3 °C 16.2 °C 1016.6 hPa West 3.2 km/h 6.4 km/h 93% 0.0 mm 0 W/m2
04:02 17.3 °C 16.2 °C 1016.6 hPa WNW 9.7 km/h 9.7 km/h 93% 0.0 mm 0 W/m2
04:07 17.3 °C 16.2 °C 1016.6 hPa West 6.4 km/h 8 km/h 93% 0.0 mm 0 W/m2
04:12 17.2 °C 16.1 °C 1016.9 hPa WNW 6.4 km/h 11.3 km/h 93% 0.0 mm 0 W/m2
04:17 17.2 °C 16.1 °C 1016.9 hPa WSW 6.4 km/h 9.7 km/h 93% 0.0 mm 0 W/m2
04:22 17.2 °C 16.1 °C 1016.6 hPa West 6.4 km/h 6.4 km/h 93% 0.0 mm 0 W/m2
04:27 17.2 °C 16.1 °C 1016.9 hPa West 4.7 km/h 9.7 km/h 93% 0.0 mm 0 W/m2
04:32 17.2 °C 16.2 °C 1016.9 hPa West 4.7 km/h 9.7 km/h 94% 0.0 mm 0 W/m2
04:37 17.2 °C 16.1 °C 1016.9 hPa West 4.7 km/h 11.3 km/h 93% 0.0 mm 0 W/m2
04:42 17.2 °C 16.1 °C 1016.9 hPa SW 6.4 km/h 9.7 km/h 93% 0.0 mm 0 W/m2
04:47 17.2 °C 16.1 °C 1016.9 hPa WNW 4.7 km/h 9.7 km/h 93% 0.0 mm 0 W/m2
04:52 17.2 °C 16.1 °C 1016.9 hPa West 6.4 km/h 9.7 km/h 93% 0.0 mm 0 W/m2
04:57 17.2 °C 16.1 °C 1016.9 hPa WSW 6.4 km/h 9.7 km/h 93% 0.0 mm 0 W/m2
05:02 17.2 °C 16.1 °C 1016.9 hPa WSW 6.4 km/h 6.4 km/h 93% 0.0 mm 0 W/m2
05:07 17.2 °C 16.1 °C 1016.9 hPa WSW 6.4 km/h 8 km/h 93% 0.0 mm 0 W/m2
05:12 17.2 °C 16.1 °C 1016.9 hPa West 4.7 km/h 11.3 km/h 93% 0.0 mm 0 W/m2
05:17 17.2 °C 16.1 °C 1016.9 hPa WNW 3.2 km/h 6.4 km/h 93% 0.0 mm 0 W/m2
05:22 17.2 °C 16.1 °C 1016.9 hPa West 6.4 km/h 9.7 km/h 93% 0.0 mm 0 W/m2
05:27 17.3 °C 16.2 °C 1016.9 hPa West 6.4 km/h 11.3 km/h 93% 0.0 mm 0 W/m2
05:32 17.3 °C 16.2 °C 1017.3 hPa West 4.7 km/h 11.3 km/h 93% 0.0 mm 0 W/m2
05:37 17.3 °C 16.2 °C 1017.3 hPa West 4.7 km/h 11.3 km/h 93% 0.0 mm 0 W/m2
05:42 17.3 °C 16.2 °C 1017.3 hPa West 6.4 km/h 11.3 km/h 93% 0.0 mm 0 W/m2
05:47 17.4 °C 16.3 °C 1017.3 hPa West 4.7 km/h 8 km/h 93% 0.0 mm 0 W/m2
05:52 17.4 °C 16.3 °C 1017.3 hPa West 6.4 km/h 14.5 km/h 93% 0.0 mm 0 W/m2
Juneau County Weather
Compliments of Weather Underground - 2 mb